createdAt,value
2023-03-01T00:01:58.234Z,0.09
2023-03-01T00:05:01.124Z,0.05
2023-03-01T00:08:05.301Z,-0.01
2023-03-01T00:11:10.503Z,0.05
2023-03-01T00:14:13.612Z,0.07
2023-03-01T00:17:16.370Z,0.06
2023-03-01T00:20:19.364Z,0.00
2023-03-01T00:23:24.441Z,-0.11
2023-03-01T00:26:28.289Z,-0.13
2023-03-01T00:29:31.437Z,-0.13
2023-03-01T00:32:34.293Z,-0.18
2023-03-01T00:35:37.846Z,-0.20
2023-03-01T00:38:43.716Z,-0.34
2023-03-01T00:41:46.431Z,-0.37
2023-03-01T00:44:49.193Z,-0.39
2023-03-01T00:47:52.821Z,-0.31
2023-03-01T00:50:55.480Z,-0.26
2023-03-01T00:54:02.590Z,-0.22
2023-03-01T00:57:05.363Z,-0.20
2023-03-01T01:00:10.709Z,-0.20
2023-03-01T01:03:13.731Z,-0.15
2023-03-01T01:06:22.610Z,-0.15
2023-03-01T01:09:26.954Z,-0.20
2023-03-01T01:12:29.972Z,-0.22
2023-03-01T01:15:36.166Z,-0.24
2023-03-01T01:18:39.352Z,-0.30
2023-03-01T01:21:44.207Z,-0.28
2023-03-01T01:24:49.052Z,-0.28
2023-03-01T01:27:51.912Z,-0.31
2023-03-01T01:30:54.934Z,-0.34
2023-03-01T01:33:58.617Z,-0.40
2023-03-01T01:37:03.704Z,-0.45
2023-03-01T01:40:09.179Z,-0.53
2023-03-01T01:43:20.257Z,-0.47
2023-03-01T01:46:30.670Z,-0.52
2023-03-01T01:49:37.468Z,-0.67
2023-03-01T01:52:40.376Z,-0.62
2023-03-01T01:55:47.359Z,-0.59
2023-03-01T01:58:50.573Z,-0.62
2023-03-01T02:01:53.632Z,-0.63
2023-03-01T02:05:04.678Z,-0.53
2023-03-01T02:08:07.739Z,-0.53
2023-03-01T02:11:15.661Z,-0.48
2023-03-01T02:14:19.203Z,-0.58
2023-03-01T02:17:23.668Z,-0.57
2023-03-01T02:20:35.433Z,-0.43
2023-03-01T02:23:38.531Z,-0.41
2023-03-01T02:26:47.246Z,-0.43
2023-03-01T02:29:51.448Z,-0.30
2023-03-01T02:33:03.879Z,-0.32
2023-03-01T02:36:10.206Z,-0.33
2023-03-01T02:39:18.563Z,-0.19
2023-03-01T02:42:28.038Z,-0.10
2023-03-01T02:45:32.753Z,-0.04
2023-03-01T02:48:43.619Z,0.07
2023-03-01T02:51:56.895Z,0.13
2023-03-01T02:55:02.862Z,0.23
2023-03-01T02:58:06.504Z,0.18
2023-03-01T03:01:10.973Z,0.18
2023-03-01T03:04:18.854Z,0.11
2023-03-01T03:07:21.843Z,0.09
2023-03-01T03:10:28.807Z,0.14
2023-03-01T03:13:31.943Z,0.31
2023-03-01T03:16:36.237Z,0.41
2023-03-01T03:19:39.049Z,0.54
2023-03-01T03:22:42.095Z,0.65
2023-03-01T03:25:44.773Z,0.54
2023-03-01T03:28:47.720Z,0.55
2023-03-01T03:31:51.905Z,0.55
2023-03-01T03:34:54.679Z,0.48
2023-03-01T03:38:04.200Z,0.39
2023-03-01T03:41:09.172Z,0.54
2023-03-01T03:44:12.107Z,0.56
2023-03-01T03:47:16.578Z,0.50
2023-03-01T03:50:20.277Z,0.57
2023-03-01T03:53:24.658Z,0.71
2023-03-01T03:56:28.910Z,0.75
2023-03-01T03:59:31.804Z,0.77
2023-03-01T04:02:35.875Z,0.84
2023-03-01T04:05:39.296Z,0.79
2023-03-01T04:08:42.916Z,0.90
2023-03-01T04:11:45.778Z,0.95
2023-03-01T04:14:49.040Z,0.97
2023-03-01T04:17:54.397Z,1.09
2023-03-01T04:20:57.173Z,0.97
2023-03-01T04:23:59.845Z,1.07
2023-03-01T04:27:03.208Z,1.03
2023-03-01T04:30:06.716Z,0.95
2023-03-01T04:33:12.952Z,0.91
2023-03-01T04:36:18.613Z,1.01
2023-03-01T04:39:21.496Z,1.00
2023-03-01T04:42:24.233Z,1.03
2023-03-01T04:45:27.253Z,1.11
2023-03-01T04:48:31.903Z,1.13
2023-03-01T04:51:34.719Z,1.14
2023-03-01T04:54:38.084Z,1.21
2023-03-01T04:57:41.584Z,1.27
2023-03-01T05:00:44.488Z,1.25
2023-03-01T05:03:50.180Z,1.31
2023-03-01T05:06:54.510Z,1.30
2023-03-01T05:09:57.313Z,1.25
2023-03-01T05:13:00.709Z,1.30
2023-03-01T05:16:05.525Z,1.28
2023-03-01T05:19:16.368Z,1.27
2023-03-01T05:22:20.254Z,1.43
2023-03-01T05:25:23.638Z,1.46
2023-03-01T05:28:26.607Z,1.50
2023-03-01T05:31:31.661Z,1.55
2023-03-01T05:34:38.006Z,1.62
2023-03-01T05:37:42.564Z,1.67
2023-03-01T05:40:47.613Z,1.69
2023-03-01T05:43:50.473Z,1.74
2023-03-01T05:46:53.628Z,1.73
2023-03-01T05:49:57.729Z,1.76
2023-03-01T05:53:02.172Z,1.81
2023-03-01T05:56:05.628Z,1.86
2023-03-01T05:59:08.832Z,1.93
2023-03-01T06:02:11.513Z,1.89
2023-03-01T06:05:17.034Z,1.89
2023-03-01T06:08:21.281Z,1.96
2023-03-01T06:11:24.661Z,1.97
2023-03-01T06:14:27.457Z,1.98
2023-03-01T06:17:32.388Z,1.95
2023-03-01T06:20:36.525Z,1.99
2023-03-01T06:23:39.198Z,2.08
2023-03-01T06:26:41.970Z,2.12
2023-03-01T06:29:44.666Z,2.11
2023-03-01T06:32:47.552Z,2.14
2023-03-01T06:35:52.319Z,2.08
2023-03-01T06:38:55.151Z,2.09
2023-03-01T06:41:57.935Z,2.05
2023-03-01T06:45:00.686Z,2.11
2023-03-01T06:48:05.521Z,1.99
2023-03-01T06:51:09.724Z,1.98
2023-03-01T06:54:12.666Z,2.13
2023-03-01T06:57:15.652Z,2.67
2023-03-01T07:00:19.353Z,3.75
2023-03-01T07:03:22.155Z,5.18
2023-03-01T07:06:26.340Z,6.56
2023-03-01T07:09:29.394Z,7.50
2023-03-01T07:12:32.113Z,8.21
2023-03-01T07:15:34.939Z,8.10
2023-03-01T07:18:37.708Z,7.36
2023-03-01T07:21:41.751Z,6.53
2023-03-01T07:24:45.401Z,5.69
2023-03-01T07:27:52.148Z,5.03
2023-03-01T07:30:55.359Z,4.37
2023-03-01T07:33:58.298Z,3.89
2023-03-01T07:37:02.357Z,3.71
2023-03-01T07:40:06.176Z,3.33
2023-03-01T07:43:09.029Z,3.15
2023-03-01T07:46:12.275Z,3.08
2023-03-01T07:49:15.423Z,3.01
2023-03-01T07:52:19.591Z,2.86
2023-03-01T07:55:22.445Z,2.54
2023-03-01T07:58:25.288Z,2.51
2023-03-01T08:01:28.148Z,2.40
2023-03-01T08:04:30.944Z,2.33
2023-03-01T08:07:35.502Z,2.32
2023-03-01T08:10:38.714Z,2.33
2023-03-01T08:13:42.276Z,2.18
2023-03-01T08:16:45.163Z,2.05
2023-03-01T08:19:47.960Z,2.16
2023-03-01T08:22:52.062Z,2.30
2023-03-01T08:25:54.922Z,2.44
2023-03-01T08:28:58.790Z,2.44
2023-03-01T08:32:02.128Z,2.59
2023-03-01T08:35:05.506Z,2.68
2023-03-01T08:38:09.748Z,2.79
2023-03-01T08:41:12.505Z,2.74
2023-03-01T08:44:17.667Z,2.75
2023-03-01T08:47:20.515Z,2.79
2023-03-01T08:50:25.336Z,2.85
2023-03-01T08:53:29.366Z,2.76
2023-03-01T08:56:32.784Z,2.64
2023-03-01T08:59:38.374Z,2.81
2023-03-01T09:02:41.221Z,2.79
2023-03-01T09:05:43.936Z,2.98
2023-03-01T09:08:49.857Z,3.09
2023-03-01T09:11:52.670Z,3.09
2023-03-01T09:14:55.340Z,3.20
2023-03-01T09:17:58.125Z,3.29
2023-03-01T09:21:08.040Z,3.39
2023-03-01T09:24:16.381Z,3.51
2023-03-01T09:27:19.955Z,3.59
2023-03-01T09:30:23.554Z,3.61
2023-03-01T09:33:26.318Z,3.87
2023-03-01T09:36:30.037Z,3.94
2023-03-01T09:39:34.420Z,4.21
2023-03-01T09:42:38.693Z,4.53
2023-03-01T09:45:46.022Z,4.98
2023-03-01T09:48:54.476Z,5.36
2023-03-01T09:52:01.147Z,5.55
2023-03-01T09:55:12.652Z,5.89
2023-03-01T09:58:38.012Z,6.26
2023-03-01T10:01:49.712Z,6.49
2023-03-01T10:04:54.743Z,6.67
2023-03-01T10:08:06.966Z,6.76
2023-03-01T10:11:24.930Z,7.14
2023-03-01T10:14:36.285Z,7.28
2023-03-01T10:17:44.875Z,7.55
2023-03-01T10:20:55.192Z,7.51
2023-03-01T10:24:05.924Z,7.84
2023-03-01T10:27:17.983Z,7.92
2023-03-01T10:30:24.434Z,7.98
2023-03-01T10:33:31.347Z,8.24
2023-03-01T10:36:35.889Z,8.52
2023-03-01T10:39:57.288Z,8.84
2023-03-01T10:43:04.670Z,8.92
2023-03-01T10:46:25.156Z,9.17
2023-03-01T10:49:27.939Z,9.25
2023-03-01T10:52:35.068Z,9.41
2023-03-01T10:55:40.055Z,9.69
2023-03-01T10:59:00.195Z,9.76
2023-03-01T11:02:24.396Z,9.87
2023-03-01T11:05:29.403Z,9.84
2023-03-01T11:08:35.248Z,9.98
2023-03-01T11:11:38.802Z,9.72
2023-03-01T11:14:49.577Z,9.95
2023-03-01T11:17:57.068Z,10.22
2023-03-01T11:21:05.649Z,10.31
2023-03-01T11:24:13.906Z,10.30
2023-03-01T11:27:21.815Z,10.31
2023-03-01T11:30:30.998Z,10.25
2023-03-01T11:33:39.132Z,10.43
2023-03-01T11:36:47.139Z,10.77
2023-03-01T11:39:58.209Z,10.99
2023-03-01T11:43:11.883Z,11.13
2023-03-01T11:46:45.424Z,11.32
2023-03-01T11:50:11.015Z,11.38
2023-03-01T11:53:32.507Z,11.39
2023-03-01T11:56:40.454Z,11.24
2023-03-01T12:00:17.662Z,11.60
2023-03-01T12:03:34.486Z,11.76
2023-03-01T12:06:53.056Z,11.87
2023-03-01T12:10:12.787Z,11.50
2023-03-01T12:13:39.634Z,11.56
2023-03-01T12:17:09.944Z,11.76
2023-03-01T12:20:34.433Z,11.87
2023-03-01T12:24:00.715Z,11.82
2023-03-01T12:27:22.721Z,11.81
2023-03-01T12:30:37.398Z,11.97
2023-03-01T12:33:50.940Z,12.20
2023-03-01T12:37:13.002Z,12.46
2023-03-01T12:40:35.520Z,12.57
2023-03-01T12:43:52.756Z,12.61
2023-03-01T12:47:21.420Z,12.46
2023-03-01T12:50:26.666Z,12.55
2023-03-01T12:53:33.331Z,12.62
2023-03-01T12:56:39.168Z,12.78
2023-03-01T12:59:50.187Z,12.90
2023-03-01T13:03:00.280Z,12.96
2023-03-01T13:06:13.076Z,12.77
2023-03-01T13:09:27.033Z,12.82
2023-03-01T13:12:53.760Z,12.81
2023-03-01T13:15:57.242Z,12.52
2023-03-01T13:19:10.472Z,12.67
2023-03-01T13:22:29.587Z,12.81
2023-03-01T13:25:42.046Z,12.86
2023-03-01T13:28:54.523Z,12.71
2023-03-01T13:31:59.438Z,12.30
2023-03-01T13:35:04.435Z,12.27
2023-03-01T13:38:46.873Z,12.33
2023-03-01T13:41:56.137Z,12.33
2023-03-01T13:44:59.185Z,12.39
2023-03-01T13:48:05.899Z,12.43
2023-03-01T13:51:12.008Z,12.47
2023-03-01T13:54:17.473Z,12.54
2023-03-01T13:57:26.940Z,12.61
2023-03-01T14:00:33.515Z,12.27
2023-03-01T14:03:43.850Z,12.08
2023-03-01T14:06:47.056Z,11.77
2023-03-01T14:09:54.686Z,11.83
2023-03-01T14:13:16.172Z,11.92
2023-03-01T14:16:27.446Z,11.96
2023-03-01T14:19:34.104Z,11.98
2023-03-01T14:22:38.535Z,11.89
2023-03-01T14:25:49.488Z,11.61
2023-03-01T14:28:53.683Z,10.96
2023-03-01T14:31:56.516Z,10.78
2023-03-01T14:35:00.760Z,10.95
2023-03-01T14:38:04.021Z,10.98
2023-03-01T14:41:09.765Z,11.14
2023-03-01T14:44:20.643Z,10.86
2023-03-01T14:47:29.294Z,10.88
2023-03-01T14:50:34.017Z,10.92
2023-03-01T14:53:49.268Z,10.89
2023-03-01T14:56:54.965Z,10.98
2023-03-01T15:00:05.245Z,10.85
2023-03-01T15:03:14.224Z,10.44
2023-03-01T15:06:20.370Z,10.31
2023-03-01T15:09:24.286Z,10.27
2023-03-01T15:12:39.599Z,9.88
2023-03-01T15:15:47.285Z,9.72
2023-03-01T15:18:52.813Z,9.68
2023-03-01T15:21:55.805Z,9.64
2023-03-01T15:24:59.183Z,9.53
2023-03-01T15:28:03.989Z,9.35
2023-03-01T15:31:21.493Z,9.31
2023-03-01T15:34:26.815Z,9.37
2023-03-01T15:37:41.642Z,9.31
2023-03-01T15:40:52.025Z,9.19
2023-03-01T15:43:56.523Z,9.14
2023-03-01T15:47:01.343Z,9.09
2023-03-01T15:50:04.438Z,9.08
2023-03-01T15:53:12.050Z,9.10
2023-03-01T15:56:15.228Z,9.09
2023-03-01T15:59:18.116Z,9.03
2023-03-01T16:02:23.018Z,8.95
2023-03-01T16:05:27.832Z,8.83
2023-03-01T16:08:30.573Z,8.79
2023-03-01T16:11:33.557Z,8.78
2023-03-01T16:14:36.488Z,8.81
2023-03-01T16:17:40.755Z,8.81
2023-03-01T16:20:44.023Z,8.70
2023-03-01T16:23:47.107Z,8.61
2023-03-01T16:26:49.765Z,8.47
2023-03-01T16:29:52.419Z,8.51
2023-03-01T16:32:56.468Z,8.43
2023-03-01T16:36:01.131Z,8.41
2023-03-01T16:39:04.360Z,8.32
2023-03-01T16:42:07.304Z,8.31
2023-03-01T16:45:22.795Z,8.25
2023-03-01T16:48:28.322Z,8.18
2023-03-01T16:51:31.967Z,8.12
2023-03-01T16:54:34.904Z,8.14
2023-03-01T16:57:38.726Z,8.06
2023-03-01T17:00:41.611Z,8.02
2023-03-01T17:03:48.284Z,7.90
2023-03-01T17:06:51.619Z,7.89
2023-03-01T17:09:54.297Z,7.81
2023-03-01T17:12:57.134Z,7.72
2023-03-01T17:15:59.821Z,7.70
2023-03-01T17:19:04.269Z,7.48
2023-03-01T17:22:06.967Z,7.38
2023-03-01T17:25:10.615Z,7.18
2023-03-01T17:28:14.699Z,7.14
2023-03-01T17:31:17.431Z,6.99
2023-03-01T17:34:21.547Z,6.94
2023-03-01T17:37:24.770Z,6.86
2023-03-01T17:40:28.447Z,6.83
2023-03-01T17:43:31.421Z,6.71
2023-03-01T17:46:34.087Z,6.63
2023-03-01T17:49:38.674Z,6.49
2023-03-01T17:52:42.555Z,6.40
2023-03-01T17:55:46.158Z,6.32
2023-03-01T17:58:48.881Z,6.25
2023-03-01T18:01:52.312Z,6.21
2023-03-01T18:04:58.823Z,6.19
2023-03-01T18:08:01.637Z,6.08
2023-03-01T18:11:04.439Z,6.03
2023-03-01T18:14:07.114Z,6.02
2023-03-01T18:17:11.881Z,5.94
2023-03-01T18:20:17.944Z,5.83
2023-03-01T18:23:20.625Z,5.81
2023-03-01T18:26:25.103Z,5.77
2023-03-01T18:29:28.285Z,5.74
2023-03-01T18:32:31.029Z,5.64
2023-03-01T18:35:38.843Z,5.55
2023-03-01T18:38:41.768Z,5.47
2023-03-01T18:41:44.609Z,5.41
2023-03-01T18:44:47.495Z,5.28
2023-03-01T18:47:50.764Z,5.26
2023-03-01T18:50:54.860Z,5.21
2023-03-01T18:53:59.524Z,5.11
2023-03-01T18:57:02.332Z,5.02
2023-03-01T19:00:09.138Z,4.97
2023-03-01T19:03:12.271Z,4.91
2023-03-01T19:06:17.338Z,4.81
2023-03-01T19:09:20.146Z,4.78
2023-03-01T19:12:22.854Z,4.75
2023-03-01T19:15:25.627Z,4.73
2023-03-01T19:18:28.519Z,4.71
2023-03-01T19:21:33.775Z,4.75
2023-03-01T19:24:36.786Z,4.84
2023-03-01T19:27:39.740Z,4.89
2023-03-01T19:30:42.487Z,5.04
2023-03-01T19:33:45.385Z,5.11
2023-03-01T19:36:49.827Z,5.16
2023-03-01T19:39:52.469Z,5.22
2023-03-01T19:42:55.183Z,5.23
2023-03-01T19:45:58.295Z,5.35
2023-03-01T19:49:03.065Z,5.43
2023-03-01T19:52:07.242Z,5.56
2023-03-01T19:55:11.015Z,5.61
2023-03-01T19:58:13.728Z,5.65
2023-03-01T20:01:17.857Z,5.69
2023-03-01T20:04:20.934Z,5.71
2023-03-01T20:07:25.241Z,5.68
2023-03-01T20:10:30.315Z,5.66
2023-03-01T20:13:33.261Z,5.60
2023-03-01T20:16:36.150Z,5.64
2023-03-01T20:19:39.105Z,5.69
2023-03-01T20:22:43.347Z,5.66
2023-03-01T20:25:46.266Z,5.65
2023-03-01T20:28:50.949Z,5.68
2023-03-01T20:31:54.094Z,5.68
2023-03-01T20:34:56.904Z,5.82
2023-03-01T20:38:01.005Z,5.76
2023-03-01T20:41:06.033Z,5.58
2023-03-01T20:44:09.457Z,5.52
2023-03-01T20:47:12.751Z,5.33
2023-03-01T20:50:16.212Z,5.30
2023-03-01T20:53:20.182Z,5.21
2023-03-01T20:56:24.215Z,5.09
2023-03-01T20:59:27.240Z,4.91
2023-03-01T21:02:29.949Z,4.81
2023-03-01T21:05:32.727Z,4.66
2023-03-01T21:08:38.173Z,4.58
2023-03-01T21:11:41.082Z,4.48
2023-03-01T21:14:43.854Z,4.42
2023-03-01T21:17:46.576Z,4.25
2023-03-01T21:20:49.723Z,4.16
2023-03-01T21:23:54.877Z,4.16
2023-03-01T21:26:57.667Z,4.03
2023-03-01T21:30:00.355Z,3.97
2023-03-01T21:33:03.255Z,3.87
2023-03-01T21:36:08.286Z,3.77
2023-03-01T21:39:12.882Z,3.75
2023-03-01T21:42:15.564Z,3.65
2023-03-01T21:45:18.391Z,3.67
2023-03-01T21:48:21.375Z,3.68
2023-03-01T21:51:26.866Z,3.59
2023-03-01T21:54:32.347Z,3.53
2023-03-01T21:57:43.732Z,3.54
2023-03-01T22:00:47.077Z,3.40
2023-03-01T22:03:49.976Z,3.21
2023-03-01T22:06:54.448Z,3.19
2023-03-01T22:10:01.759Z,3.16
2023-03-01T22:13:05.429Z,3.10
2023-03-01T22:16:08.981Z,3.13
2023-03-01T22:19:13.145Z,3.16
2023-03-01T22:22:15.926Z,3.13
2023-03-01T22:25:20.326Z,3.10
2023-03-01T22:28:23.068Z,3.01
2023-03-01T22:31:26.292Z,2.94
2023-03-01T22:34:29.248Z,2.92
2023-03-01T22:37:31.999Z,2.80
2023-03-01T22:40:36.074Z,2.77
2023-03-01T22:43:38.819Z,2.72
2023-03-01T22:46:42.019Z,2.71
2023-03-01T22:49:45.223Z,2.62
2023-03-01T22:52:47.956Z,2.66
2023-03-01T22:55:52.096Z,2.67
2023-03-01T22:58:54.828Z,2.69
2023-03-01T23:01:57.575Z,2.60
2023-03-01T23:05:00.345Z,2.57
2023-03-01T23:08:03.095Z,2.64
2023-03-01T23:11:11.628Z,2.63
2023-03-01T23:14:16.199Z,2.57
2023-03-01T23:17:18.900Z,2.61
2023-03-01T23:20:21.596Z,2.53
2023-03-01T23:23:24.339Z,2.52
2023-03-01T23:26:30.430Z,2.53
2023-03-01T23:29:34.026Z,2.51
2023-03-01T23:32:40.541Z,2.50
2023-03-01T23:35:43.401Z,2.41
2023-03-01T23:38:46.463Z,2.43
2023-03-01T23:41:50.703Z,2.41
2023-03-01T23:44:53.469Z,2.41
2023-03-01T23:47:56.607Z,2.35
2023-03-01T23:51:05.300Z,2.37
2023-03-01T23:54:08.303Z,2.36
2023-03-01T23:57:12.671Z,2.29
